createdAt,value
2022-12-23T00:00:30.378Z,100063.31
2022-12-23T00:03:35.519Z,100059.22
2022-12-23T00:06:40.069Z,100060.00
2022-12-23T00:09:44.635Z,100064.31
2022-12-23T00:13:07.489Z,100065.00
2022-12-23T00:16:14.648Z,100064.16
2022-12-23T00:19:19.377Z,100064.16
2022-12-23T00:22:43.867Z,100061.63
2022-12-23T00:25:48.415Z,100057.38
2022-12-23T00:28:55.173Z,100055.69
2022-12-23T00:31:59.635Z,100056.47
2022-12-23T00:35:04.598Z,100064.31
2022-12-23T00:38:09.057Z,100053.00
2022-12-23T00:41:37.841Z,100057.25
2022-12-23T00:44:41.833Z,100055.53
2022-12-23T00:48:17.113Z,100059.94
2022-12-23T00:51:21.424Z,100059.84
2022-12-23T00:54:26.271Z,100061.56
2022-12-23T00:57:30.714Z,100054.72
2022-12-23T01:00:53.424Z,100062.59
2022-12-23T01:04:16.146Z,100060.25
2022-12-23T01:07:21.443Z,100066.97
2022-12-23T01:10:25.975Z,100060.00
2022-12-23T01:13:30.488Z,100063.38
2022-12-23T01:16:38.622Z,100062.59
2022-12-23T01:19:43.327Z,100069.66
2022-12-23T01:22:47.835Z,100071.63
2022-12-23T01:26:05.038Z,100064.44
2022-12-23T01:29:09.497Z,100060.91
2022-12-23T01:32:13.879Z,100060.91
2022-12-23T01:35:18.697Z,100047.22
2022-12-23T01:38:22.834Z,100047.09
2022-12-23T01:41:51.294Z,100054.00
2022-12-23T01:45:04.422Z,100052.38
2022-12-23T01:48:23.504Z,100065.34
2022-12-23T01:51:30.102Z,100068.06
2022-12-23T01:54:35.526Z,100074.16
2022-12-23T01:57:42.800Z,100072.44
2022-12-23T02:01:05.641Z,100074.41
2022-12-23T02:04:15.978Z,100072.63
2022-12-23T02:07:40.247Z,100073.34
2022-12-23T02:11:29.647Z,100069.06
2022-12-23T02:15:36.095Z,100078.63
2022-12-23T02:19:17.755Z,100073.41
2022-12-23T02:23:19.032Z,100081.22
2022-12-23T02:26:26.662Z,100081.22
2022-12-23T02:30:27.627Z,100076.94
2022-12-23T02:34:16.870Z,100077.84
2022-12-23T02:37:38.061Z,100068.25
2022-12-23T02:41:10.668Z,100073.56
2022-12-23T02:44:36.216Z,100077.84
2022-12-23T02:47:49.237Z,100086.59
2022-12-23T02:50:57.054Z,100092.69
2022-12-23T02:54:08.129Z,100090.09
2022-12-23T02:57:17.979Z,100091.41
2022-12-23T03:00:23.005Z,100096.72
2022-12-23T03:03:28.407Z,100094.13
2022-12-23T03:06:43.358Z,100095.69
2022-12-23T03:10:14.534Z,100098.16
2022-12-23T03:13:52.536Z,100092.94
2022-12-23T03:18:07.126Z,100103.38
2022-12-23T03:21:30.360Z,100114.69
2022-12-23T03:24:37.712Z,100111.25
2022-12-23T03:28:11.134Z,100112.25
2022-12-23T03:31:29.062Z,100108.72
2022-12-23T03:34:40.954Z,100113.78
2022-12-23T03:37:50.642Z,100122.50
2022-12-23T03:41:01.825Z,100122.59
2022-12-23T03:44:20.302Z,100124.88
2022-12-23T03:47:44.672Z,100134.00
2022-12-23T03:50:56.577Z,100139.84
2022-12-23T03:54:17.288Z,100135.47
2022-12-23T03:57:34.588Z,100135.28
2022-12-23T04:00:49.720Z,100139.56
2022-12-23T04:04:44.788Z,100135.28
2022-12-23T04:08:12.062Z,100135.81
2022-12-23T04:11:16.956Z,100139.84
2022-12-23T04:14:22.960Z,100143.19
2022-12-23T04:17:27.731Z,100144.81
2022-12-23T04:20:32.025Z,100151.88
2022-12-23T04:23:36.302Z,100158.22
2022-12-23T04:26:40.628Z,100152.06
2022-12-23T04:29:44.998Z,100157.19
2022-12-23T04:32:49.283Z,100163.91
2022-12-23T04:35:53.674Z,100177.75
2022-12-23T04:38:57.797Z,100178.69
2022-12-23T04:42:02.402Z,100173.56
2022-12-23T04:45:07.411Z,100172.84
2022-12-23T04:48:11.921Z,100169.19
2022-12-23T04:51:16.102Z,100170.34
2022-12-23T04:54:20.324Z,100170.13
2022-12-23T04:57:24.675Z,100157.31
2022-12-23T05:00:34.025Z,100166.91
2022-12-23T05:03:42.076Z,100172.00
2022-12-23T05:06:46.586Z,100171.50
2022-12-23T05:09:51.917Z,100185.16
2022-12-23T05:12:55.997Z,100174.78
2022-12-23T05:16:00.267Z,100190.56
2022-12-23T05:19:05.143Z,100187.06
2022-12-23T05:22:09.534Z,100198.44
2022-12-23T05:25:14.117Z,100207.13
2022-12-23T05:28:19.297Z,100217.94
2022-12-23T05:31:23.677Z,100218.34
2022-12-23T05:34:28.316Z,100222.31
2022-12-23T05:37:32.874Z,100230.59
2022-12-23T05:40:37.889Z,100248.97
2022-12-23T05:43:43.282Z,100263.66
2022-12-23T05:46:47.724Z,100280.41
2022-12-23T05:49:52.167Z,100285.56
2022-12-23T05:52:57.695Z,100292.53
2022-12-23T05:56:06.971Z,100303.91
2022-12-23T05:59:11.513Z,100299.75
2022-12-23T06:02:16.095Z,100294.47
2022-12-23T06:05:20.724Z,100305.72
2022-12-23T06:08:25.291Z,100312.72
2022-12-23T06:11:29.895Z,100328.19
2022-12-23T06:14:34.388Z,100331.56
2022-12-23T06:17:38.749Z,100341.97
2022-12-23T06:20:47.547Z,100348.19
2022-12-23T06:23:52.774Z,100358.75
2022-12-23T06:26:57.675Z,100361.88
2022-12-23T06:30:02.207Z,100363.81
2022-12-23T06:33:06.485Z,100362.16
2022-12-23T06:36:13.609Z,100362.94
2022-12-23T06:39:18.068Z,100356.66
2022-12-23T06:42:22.309Z,100375.91
2022-12-23T06:45:26.858Z,100373.09
2022-12-23T06:48:31.372Z,100381.13
2022-12-23T06:51:35.889Z,100391.59
2022-12-23T06:54:40.472Z,100386.63
2022-12-23T06:57:45.254Z,100395.16
2022-12-23T07:00:49.680Z,100382.59
2022-12-23T07:03:54.293Z,100377.28
2022-12-23T07:06:58.847Z,100374.22
2022-12-23T07:10:03.569Z,100391.78
2022-12-23T07:13:08.112Z,100410.16
2022-12-23T07:16:13.005Z,100419.59
2022-12-23T07:19:17.803Z,100424.72
2022-12-23T07:22:22.142Z,100433.44
2022-12-23T07:25:26.379Z,100442.06
2022-12-23T07:28:30.563Z,100434.28
2022-12-23T07:31:39.269Z,100437.75
2022-12-23T07:34:45.335Z,100430.13
2022-12-23T07:37:55.565Z,100445.19
2022-12-23T07:40:59.800Z,100460.13
2022-12-23T07:44:04.412Z,100461.88
2022-12-23T07:47:08.810Z,100469.03
2022-12-23T07:50:13.614Z,100472.47
2022-12-23T07:53:17.902Z,100463.00
2022-12-23T07:56:22.227Z,100466.38
2022-12-23T07:59:27.402Z,100468.22
2022-12-23T08:02:31.937Z,100471.59
2022-12-23T08:05:36.337Z,100467.31
2022-12-23T08:08:41.515Z,100471.53
2022-12-23T08:11:46.545Z,100474.09
2022-12-23T08:14:52.653Z,100477.41
2022-12-23T08:17:57.404Z,100482.94
2022-12-23T08:21:08.852Z,100491.66
2022-12-23T08:24:13.644Z,100495.09
2022-12-23T08:27:18.637Z,100483.84
2022-12-23T08:30:23.353Z,100487.44
2022-12-23T08:33:27.578Z,100492.53
2022-12-23T08:36:34.647Z,100501.19
2022-12-23T08:39:39.326Z,100496.03
2022-12-23T08:42:44.513Z,100500.31
2022-12-23T08:45:48.705Z,100499.34
2022-12-23T08:48:53.627Z,100497.75
2022-12-23T08:51:58.279Z,100506.03
2022-12-23T08:55:02.302Z,100513.06
2022-12-23T08:58:08.185Z,100511.94
2022-12-23T09:01:17.463Z,100520.09
2022-12-23T09:04:21.800Z,100529.44
2022-12-23T09:07:25.932Z,100536.13
2022-12-23T09:10:30.201Z,100531.00
2022-12-23T09:13:35.925Z,100538.13
2022-12-23T09:16:40.913Z,100537.22
2022-12-23T09:19:52.284Z,100539.81
2022-12-23T09:22:59.209Z,100544.13
2022-12-23T09:26:07.857Z,100546.59
2022-12-23T09:29:12.452Z,100536.22
2022-12-23T09:32:16.918Z,100533.50
2022-12-23T09:35:21.985Z,100541.00
2022-12-23T09:38:26.297Z,100538.50
2022-12-23T09:42:25.314Z,100543.50
2022-12-23T09:45:51.323Z,100551.47
2022-12-23T09:49:09.097Z,100569.88
2022-12-23T09:52:24.908Z,100584.50
2022-12-23T09:55:46.456Z,100581.94
2022-12-23T09:58:56.728Z,100578.69
2022-12-23T10:02:21.907Z,100573.34
2022-12-23T10:05:47.911Z,100559.22
2022-12-23T10:08:58.741Z,100547.81
2022-12-23T10:12:28.212Z,100532.88
2022-12-23T10:15:44.897Z,100537.34
2022-12-23T10:19:20.824Z,100537.97
2022-12-23T10:22:43.037Z,100540.19
2022-12-23T10:25:52.305Z,100544.97
2022-12-23T10:29:18.716Z,100550.41
2022-12-23T10:32:46.412Z,100547.88
2022-12-23T10:36:09.645Z,100551.38
2022-12-23T10:39:35.649Z,100547.91
2022-12-23T10:43:20.926Z,100534.53
2022-12-23T10:46:31.487Z,100538.78
2022-12-23T10:50:02.831Z,100533.06
2022-12-23T10:53:12.448Z,100539.53
2022-12-23T10:56:17.402Z,100538.06
2022-12-23T10:59:36.541Z,100539.97
2022-12-23T11:02:56.098Z,100531.66
2022-12-23T11:06:01.631Z,100532.50
2022-12-23T11:09:13.966Z,100532.66
2022-12-23T11:12:25.884Z,100529.66
2022-12-23T11:15:39.869Z,100534.31
2022-12-23T11:19:05.672Z,100528.19
2022-12-23T11:22:25.015Z,100531.25
2022-12-23T11:25:43.693Z,100533.84
2022-12-23T11:28:58.817Z,100530.72
2022-12-23T11:32:20.893Z,100526.97
2022-12-23T11:35:37.454Z,100531.44
2022-12-23T11:39:14.943Z,100539.72
2022-12-23T11:42:28.898Z,100540.66
2022-12-23T11:45:37.783Z,100548.34
2022-12-23T11:48:42.627Z,100553.78
2022-12-23T11:52:04.928Z,100556.81
2022-12-23T11:55:26.040Z,100557.22
2022-12-23T11:58:39.844Z,100559.13
2022-12-23T12:01:48.758Z,100552.44
2022-12-23T12:05:06.750Z,100552.09
2022-12-23T12:08:17.022Z,100550.06
2022-12-23T12:11:39.101Z,100546.00
2022-12-23T12:14:55.390Z,100551.72
2022-12-23T12:18:01.009Z,100549.66
2022-12-23T12:21:13.158Z,100543.25
2022-12-23T12:24:27.295Z,100531.03
2022-12-23T12:27:39.306Z,100528.19
2022-12-23T12:31:03.161Z,100535.91
2022-12-23T12:34:50.976Z,100527.44
2022-12-23T12:38:26.095Z,100514.38
2022-12-23T12:41:38.431Z,100510.88
2022-12-23T12:45:10.345Z,100500.19
2022-12-23T12:48:25.163Z,100488.97
2022-12-23T12:51:49.230Z,100485.97
2022-12-23T12:55:04.445Z,100486.16
2022-12-23T12:58:31.734Z,100469.94
2022-12-23T13:02:22.857Z,100466.03
2022-12-23T13:05:54.376Z,100463.38
2022-12-23T13:09:34.501Z,100455.94
2022-12-23T13:13:16.077Z,100462.72
2022-12-23T13:16:35.127Z,100466.56
2022-12-23T13:20:09.054Z,100450.56
2022-12-23T13:23:43.985Z,100458.66
2022-12-23T13:26:56.782Z,100456.41
2022-12-23T13:30:20.110Z,100444.88
2022-12-23T13:34:15.166Z,100427.84
2022-12-23T13:38:11.600Z,100414.78
2022-12-23T13:41:24.503Z,100402.19
2022-12-23T13:44:32.709Z,100391.94
2022-12-23T13:48:08.465Z,100390.75
2022-12-23T13:51:44.956Z,100386.84
2022-12-23T13:55:16.221Z,100379.81
2022-12-23T13:58:23.481Z,100373.63
2022-12-23T14:01:42.758Z,100360.56
2022-12-23T14:04:59.194Z,100351.56
2022-12-23T14:08:20.240Z,100354.47
2022-12-23T14:11:29.557Z,100355.59
2022-12-23T14:14:34.479Z,100346.09
2022-12-23T14:18:21.994Z,100342.59
2022-12-23T14:21:49.498Z,100320.41
2022-12-23T14:25:24.213Z,100309.78
2022-12-23T14:28:53.681Z,100298.66
2022-12-23T14:31:59.937Z,100283.00
2022-12-23T14:35:35.436Z,100279.06
2022-12-23T14:39:13.220Z,100281.25
2022-12-23T14:42:47.063Z,100269.91
2022-12-23T14:45:57.153Z,100281.25
2022-12-23T14:49:29.749Z,100289.59
2022-12-23T14:52:58.642Z,100293.09
2022-12-23T14:56:15.239Z,100301.34
2022-12-23T15:00:00.236Z,100286.41
2022-12-23T15:03:05.181Z,100284.50
2022-12-23T15:06:24.670Z,100281.19
2022-12-23T15:09:58.677Z,100285.53
2022-12-23T15:13:06.275Z,100277.03
2022-12-23T15:16:17.725Z,100289.00
2022-12-23T15:19:27.947Z,100284.88
2022-12-23T15:22:32.935Z,100282.09
2022-12-23T15:25:45.869Z,100282.09
2022-12-23T15:28:50.760Z,100276.28
2022-12-23T15:31:58.871Z,100274.88
2022-12-23T15:35:06.089Z,100289.94
2022-12-23T15:38:21.233Z,100288.09
2022-12-23T15:41:26.001Z,100287.31
2022-12-23T15:44:39.235Z,100291.44
2022-12-23T15:47:43.639Z,100287.59
2022-12-23T15:50:48.691Z,100281.72
2022-12-23T15:53:59.443Z,100270.06
2022-12-23T15:57:05.420Z,100273.94
2022-12-23T16:00:31.616Z,100279.28
2022-12-23T16:03:41.586Z,100267.16
2022-12-23T16:06:50.752Z,100274.63
2022-12-23T16:09:55.308Z,100275.69
2022-12-23T16:12:59.627Z,100272.00
2022-12-23T16:16:39.202Z,100270.28
2022-12-23T16:19:53.075Z,100269.63
2022-12-23T16:23:02.418Z,100261.63
2022-12-23T16:26:11.819Z,100253.09
2022-12-23T16:29:16.559Z,100242.97
2022-12-23T16:32:21.285Z,100250.91
2022-12-23T16:35:38.822Z,100249.03
2022-12-23T16:38:43.710Z,100240.38
2022-12-23T16:41:49.966Z,100236.28
2022-12-23T16:44:54.442Z,100234.38
2022-12-23T16:47:59.510Z,100226.78
2022-12-23T16:51:11.057Z,100231.47
2022-12-23T16:54:18.920Z,100229.47
2022-12-23T16:57:23.470Z,100227.75
2022-12-23T17:00:29.874Z,100225.94
2022-12-23T17:03:34.081Z,100222.75
2022-12-23T17:06:40.695Z,100227.09
2022-12-23T17:09:49.223Z,100225.53
2022-12-23T17:12:53.383Z,100231.28
2022-12-23T17:15:59.263Z,100229.56
2022-12-23T17:19:05.546Z,100236.59
2022-12-23T17:22:13.094Z,100241.94
2022-12-23T17:25:26.215Z,100228.72
2022-12-23T17:28:32.986Z,100236.50
2022-12-23T17:31:37.250Z,100227.81
2022-12-23T17:34:43.293Z,100227.09
2022-12-23T17:37:47.571Z,100230.41
2022-12-23T17:40:55.124Z,100238.53
2022-12-23T17:44:01.958Z,100235.06
2022-12-23T17:47:18.330Z,100232.63
2022-12-23T17:50:24.479Z,100230.72
2022-12-23T17:53:28.882Z,100227.47
2022-12-23T17:56:33.347Z,100226.59
2022-12-23T17:59:38.043Z,100226.59
2022-12-23T18:02:43.231Z,100220.38
2022-12-23T18:05:47.229Z,100220.47
2022-12-23T18:08:51.856Z,100217.44
2022-12-23T18:11:56.323Z,100217.06
2022-12-23T18:15:01.667Z,100210.50
2022-12-23T18:18:32.172Z,100218.44
2022-12-23T18:21:39.927Z,100223.59
2022-12-23T18:24:45.238Z,100219.31
2022-12-23T18:27:51.069Z,100219.44
2022-12-23T18:30:56.782Z,100217.16
2022-12-23T18:34:01.750Z,100214.34
2022-12-23T18:37:08.737Z,100217.16
2022-12-23T18:40:13.371Z,100219.66
2022-12-23T18:43:21.877Z,100220.00
2022-12-23T18:46:26.340Z,100226.91
2022-12-23T18:49:30.529Z,100228.09
2022-12-23T18:52:34.804Z,100233.81
2022-12-23T18:55:39.112Z,100227.94
2022-12-23T18:58:44.214Z,100234.06
2022-12-23T19:01:49.174Z,100229.03
2022-12-23T19:04:53.760Z,100234.25
2022-12-23T19:07:59.940Z,100227.09
2022-12-23T19:11:16.379Z,100216.19
2022-12-23T19:14:20.875Z,100215.56
2022-12-23T19:17:25.325Z,100212.16
2022-12-23T19:20:29.678Z,100208.44
2022-12-23T19:23:34.073Z,100213.13
2022-12-23T19:26:38.629Z,100213.25
2022-12-23T19:29:43.383Z,100215.13
2022-12-23T19:32:51.565Z,100210.81
2022-12-23T19:35:56.280Z,100216.38
2022-12-23T19:39:00.863Z,100221.31
2022-12-23T19:42:05.880Z,100214.50
2022-12-23T19:45:11.606Z,100212.06
2022-12-23T19:48:15.979Z,100211.22
2022-12-23T19:51:21.285Z,100205.34
2022-12-23T19:54:25.586Z,100209.94
2022-12-23T19:57:29.738Z,100212.50
2022-12-23T20:00:34.169Z,100210.16
2022-12-23T20:03:40.491Z,100219.75
2022-12-23T20:06:45.468Z,100207.81
2022-12-23T20:09:50.418Z,100210.44
2022-12-23T20:12:54.705Z,100219.16
2022-12-23T20:15:59.679Z,100208.03
2022-12-23T20:19:05.238Z,100217.56
2022-12-23T20:22:09.900Z,100221.06
2022-12-23T20:25:14.283Z,100223.06
2022-12-23T20:28:18.848Z,100223.38
2022-12-23T20:31:29.529Z,100236.97
2022-12-23T20:34:39.038Z,100235.25
2022-12-23T20:37:43.766Z,100238.63
2022-12-23T20:40:48.179Z,100233.34
2022-12-23T20:44:31.468Z,100228.22
2022-12-23T20:47:18.157Z,100234.41
2022-12-23T20:50:22.190Z,100232.69
2022-12-23T20:53:26.695Z,100234.41
2022-12-23T20:56:31.763Z,100251.63
2022-12-23T20:59:36.303Z,100243.75
2022-12-23T21:02:40.937Z,100241.38
2022-12-23T21:05:45.521Z,100237.75
2022-12-23T21:08:52.337Z,100242.16
2022-12-23T21:11:56.817Z,100246.47
2022-12-23T21:15:01.140Z,100235.25
2022-12-23T21:18:05.535Z,100230.06
2022-12-23T21:21:10.717Z,100236.22
2022-12-23T21:24:15.991Z,100233.56
2022-12-23T21:27:20.422Z,100238.06
2022-12-23T21:30:24.789Z,100239.75
2022-12-23T21:33:29.062Z,100234.56
2022-12-23T21:36:37.722Z,100241.50
2022-12-23T21:39:42.260Z,100236.34
2022-12-23T21:42:46.841Z,100242.34
2022-12-23T21:46:00.747Z,100252.94
2022-12-23T21:49:04.999Z,100252.94
2022-12-23T21:52:10.390Z,100255.63
2022-12-23T21:55:16.016Z,100251.25
2022-12-23T21:58:20.796Z,100247.94
2022-12-23T22:01:26.729Z,100256.53
2022-12-23T22:04:31.057Z,100259.94
2022-12-23T22:07:35.632Z,100260.94
2022-12-23T22:10:40.200Z,100251.53
2022-12-23T22:13:45.412Z,100252.28
2022-12-23T22:16:49.826Z,100256.63
2022-12-23T22:19:54.402Z,100256.63
2022-12-23T22:22:58.828Z,100254.91
2022-12-23T22:26:03.846Z,100262.72
2022-12-23T22:29:08.412Z,100261.91
2022-12-23T22:32:12.916Z,100262.72
2022-12-23T22:35:17.174Z,100273.09
2022-12-23T22:38:21.698Z,100266.94
2022-12-23T22:41:30.675Z,100267.97
2022-12-23T22:44:35.361Z,100262.00
2022-12-23T22:47:39.925Z,100272.31
2022-12-23T22:50:44.159Z,100265.50
2022-12-23T22:53:48.969Z,100269.91
2022-12-23T22:56:53.089Z,100275.22
2022-12-23T22:59:57.324Z,100280.38
2022-12-23T23:03:01.629Z,100281.06
2022-12-23T23:06:07.851Z,100274.38
2022-12-23T23:09:16.869Z,100274.38
2022-12-23T23:12:21.135Z,100276.28
2022-12-23T23:15:25.399Z,100289.00
2022-12-23T23:18:30.538Z,100288.25
2022-12-23T23:21:37.693Z,100286.47
2022-12-23T23:24:42.483Z,100288.16
2022-12-23T23:27:47.043Z,100289.97
2022-12-23T23:31:03.802Z,100295.91
2022-12-23T23:34:14.462Z,100289.88
2022-12-23T23:37:18.697Z,100288.94
2022-12-23T23:40:22.945Z,100276.16
2022-12-23T23:43:27.559Z,100271.50
2022-12-23T23:46:32.440Z,100282.97
2022-12-23T23:49:36.953Z,100276.81
2022-12-23T23:52:41.840Z,100269.91
2022-12-23T23:55:46.101Z,100281.28
2022-12-23T23:58:50.471Z,100276.09
